METAR Analyzer

一覧表示

Hello, Guest. (Login)

RJOO/ITM  -  大阪/伊丹

観測日時
2021-08-05 01:00 (UTC) (22分前)
気温
33
露点
25
湿数
8
相対湿度
63%
QNH
1007.1hPa
推定現地気圧
1005.7hPa
推定海面気圧
1007.0hPa
体感温度
28.8
(無風時)
30
HI
40.6
気温前日比
+1
体感温度前日比
+1.1
HI前日比
+1.4
水平視程
>10000m
鉛直視程
データなし
雲底高度
No dense clouds
V/I
VMC (VFR)
RVR
No RVR data
卓越風
3kt from 40° (310° ~ 120°)
ガスト
No gust
降水
報告なし
その他の天気
報告なし
少しの(1/8) 積雲 @ 2500ft AGL

RJOO 050100Z 04003KT 310V120 9999 FEW025 33/25 Q1007 RMK 1CU025 A2974

RJBB/KIX  -  大阪/関西

観測日時
2021-08-05 01:00 (UTC) (22分前)
気温
28
露点
26
湿数
2
相対湿度
88.9%
QNH
1007hPa
推定現地気圧
1006.4hPa
推定海面気圧
1007.0hPa
体感温度
24.2
(無風時)
28.1
HI
33.8
気温前日比
-1
体感温度前日比
-0.9
HI前日比
-0.7
水平視程
>10000m
鉛直視程
データなし
雲底高度
No dense clouds
V/I
VMC (VFR)
RVR
No RVR data
卓越風
6kt from 300°
ガスト
No gust
降水
報告なし
その他の天気
報告なし
少しの雲 @ 2000ft AGL

RJBB 050100Z 30006KT 9999 FEW020 28/26 Q1007 NOSIG

RJBE/UKB  -  神戸

観測日時
2021-08-05 01:00 (UTC) (22分前)
気温
29
露点
25
湿数
4
相対湿度
79.1%
QNH
1007hPa
推定現地気圧
1006.4hPa
推定海面気圧
1007.0hPa
体感温度
24.8
(無風時)
28.2
HI
34.5
気温前日比
-1
体感温度前日比
-1.2
HI前日比
-1.7
水平視程
>10000m
鉛直視程
データなし
雲底高度
No dense clouds
V/I
VMC (VFR)
RVR
No RVR data
卓越風
6kt from 210°
ガスト
No gust
降水
報告なし
その他の天気
報告なし
少しの雲 @ 2000ft AGL

RJBE 050100Z 21006KT 9999 FEW020 29/25 Q1007

RJBT/TKG  -  但馬

観測日時
2021-08-05 01:00 (UTC) (22分前)
気温
31
露点
24
湿数
7
相対湿度
66.4%
QNH
1008hPa
推定現地気圧
987.1hPa
推定海面気圧
1006.8hPa
体感温度
27
(無風時)
28.8
HI
36.5
気温前日比
±0
体感温度前日比
±0
HI前日比
-1.2
水平視程
>10000m
鉛直視程
データなし
雲底高度
No dense clouds
V/I
VMC (VFR)
RVR
No RVR data
卓越風
3kt from VRB
ガスト
No gust
降水
報告なし
その他の天気
報告なし
少しの雲 @ 3000ft AGL

RJBT 050100Z VRB03KT 9999 FEW030 31/24 Q1008

RJOY  -  八尾

観測日時
2021-08-05 01:00 (UTC) (22分前)
気温
32
露点
25
湿数
7
相対湿度
66.6%
QNH
1007hPa
推定現地気圧
1005.8hPa
推定海面気圧
1006.9hPa
体感温度
27.9
(無風時)
29.6
HI
39.2
気温前日比
+1
体感温度前日比
+0.4
HI前日比
+3.7
水平視程
>10000m
鉛直視程
データなし
雲底高度
No dense clouds
V/I
VMC (VFR)
RVR
No RVR data
卓越風
4kt from VRB
ガスト
No gust
降水
報告なし
その他の天気
報告なし
少しの雲 @ 2000ft AGL

RJOY 050100Z VRB04KT 9999 FEW020 32/25 Q1007

RJBD/SHM  -  南紀白浜

観測日時
2021-08-05 01:00 (UTC) (22分前)
気温
30
露点
25
湿数
5
相対湿度
74.6%
QNH
1008hPa
推定現地気圧
997.4hPa
推定海面気圧
1007.4hPa
体感温度
26.2
(無風時)
28.7
HI
36.2
気温前日比
±0
体感温度前日比
+0.5
HI前日比
+1.1
水平視程
>10000m
鉛直視程
データなし
雲底高度
No dense clouds
V/I
VMC (VFR)
RVR
No RVR data
卓越風
4kt from VRB
ガスト
No gust
降水
報告なし
その他の天気
報告なし
少しの雲 @ 1500ft AGL / 散在する雲 @ 2000ft AGL

RJBD 050100Z VRB04KT 9999 FEW015 SCT020 30/25 Q1008

RJBM  -  舞鶴基地

観測日時
2021-08-05 01:00 (UTC) (22分前)
気温
31
露点
24
湿数
7
相対湿度
66.4%
QNH
1007.5hPa
推定現地気圧
1006.8hPa
推定海面気圧
1007.5hPa
体感温度
26.7
(無風時)
28.8
HI
36.5
気温前日比
-1
体感温度前日比
-0.2
HI前日比
-0.3
水平視程
>10000m
鉛直視程
データなし
雲底高度
No dense clouds
V/I
VMC (VFR)
RVR
No RVR data
卓越風
4kt from 310°
ガスト
No gust
降水
報告なし
その他の天気
報告なし
少しの(1/8) 積雲 @ 3000ft AGL

RJBM 050100Z 31004KT 9999 FEW030 31/24 Q1007 RMK 1CU030 A2975

10.9msec